sensor_id;sensor_type;location;lat;lon;timestamp;temperature;humidity
66722;SHT31;53633;49.932;10.884;2023-07-22T00:00:03;16.07;89.63
66722;SHT31;53633;49.932;10.884;2023-07-22T00:02:30;16.01;89.27
66722;SHT31;53633;49.932;10.884;2023-07-22T00:04:56;15.97;89.62
66722;SHT31;53633;49.932;10.884;2023-07-22T00:07:23;16.00;89.63
66722;SHT31;53633;49.932;10.884;2023-07-22T00:09:50;15.92;89.81
66722;SHT31;53633;49.932;10.884;2023-07-22T00:12:16;16.00;89.87
66722;SHT31;53633;49.932;10.884;2023-07-22T00:14:43;16.09;89.49
66722;SHT31;53633;49.932;10.884;2023-07-22T00:17:11;16.13;89.35
66722;SHT31;53633;49.932;10.884;2023-07-22T00:19:38;16.20;88.78
66722;SHT31;53633;49.932;10.884;2023-07-22T00:22:05;16.10;88.78
66722;SHT31;53633;49.932;10.884;2023-07-22T00:24:32;15.99;89.27
66722;SHT31;53633;49.932;10.884;2023-07-22T00:26:59;15.99;89.33
66722;SHT31;53633;49.932;10.884;2023-07-22T00:29:25;15.94;89.51
66722;SHT31;53633;49.932;10.884;2023-07-22T00:31:52;16.00;89.58
66722;SHT31;53633;49.932;10.884;2023-07-22T00:34:20;15.94;89.73
66722;SHT31;53633;49.932;10.884;2023-07-22T00:36:47;15.92;89.74
66722;SHT31;53633;49.932;10.884;2023-07-22T00:39:13;15.89;89.82
66722;SHT31;53633;49.932;10.884;2023-07-22T00:41:40;15.89;90.09
66722;SHT31;53633;49.932;10.884;2023-07-22T00:44:07;15.90;89.80
66722;SHT31;53633;49.932;10.884;2023-07-22T00:46:34;15.89;89.71
66722;SHT31;53633;49.932;10.884;2023-07-22T00:49:01;15.90;89.94
66722;SHT31;53633;49.932;10.884;2023-07-22T00:51:29;15.94;89.95
66722;SHT31;53633;49.932;10.884;2023-07-22T00:53:56;15.97;89.66
66722;SHT31;53633;49.932;10.884;2023-07-22T00:56:22;16.04;89.72
66722;SHT31;53633;49.932;10.884;2023-07-22T00:58:50;16.01;89.69
66722;SHT31;53633;49.932;10.884;2023-07-22T01:01:17;16.20;89.17
66722;SHT31;53633;49.932;10.884;2023-07-22T01:03:43;16.21;89.01
66722;SHT31;53633;49.932;10.884;2023-07-22T01:06:10;16.16;88.89
66722;SHT31;53633;49.932;10.884;2023-07-22T01:08:40;16.30;88.48
66722;SHT31;53633;49.932;10.884;2023-07-22T01:11:07;16.10;88.66
66722;SHT31;53633;49.932;10.884;2023-07-22T01:13:34;16.06;89.06
66722;SHT31;53633;49.932;10.884;2023-07-22T01:16:01;15.90;89.42
66722;SHT31;53633;49.932;10.884;2023-07-22T01:18:28;15.79;89.99
66722;SHT31;53633;49.932;10.884;2023-07-22T01:20:54;15.72;90.39
66722;SHT31;53633;49.932;10.884;2023-07-22T01:23:22;15.82;90.28
66722;SHT31;53633;49.932;10.884;2023-07-22T01:25:52;15.92;89.81
66722;SHT31;53633;49.932;10.884;2023-07-22T01:28:20;16.01;89.58
66722;SHT31;53633;49.932;10.884;2023-07-22T01:30:47;16.00;89.23
66722;SHT31;53633;49.932;10.884;2023-07-22T01:33:14;16.24;88.68
66722;SHT31;53633;49.932;10.884;2023-07-22T01:35:54;16.22;88.25
66722;SHT31;53633;49.932;10.884;2023-07-22T01:38:23;16.14;88.47
66722;SHT31;53633;49.932;10.884;2023-07-22T01:40:49;15.96;88.85
66722;SHT31;53633;49.932;10.884;2023-07-22T01:43:16;15.81;89.32
66722;SHT31;53633;49.932;10.884;2023-07-22T01:45:42;15.78;89.74
66722;SHT31;53633;49.932;10.884;2023-07-22T01:48:09;15.70;90.02
66722;SHT31;53633;49.932;10.884;2023-07-22T01:50:36;15.76;90.15
66722;SHT31;53633;49.932;10.884;2023-07-22T01:53:02;15.72;90.27
66722;SHT31;53633;49.932;10.884;2023-07-22T01:55:31;15.70;90.38
66722;SHT31;53633;49.932;10.884;2023-07-22T01:57:57;15.86;89.92
66722;SHT31;53633;49.932;10.884;2023-07-22T02:00:24;15.83;89.90
66722;SHT31;53633;49.932;10.884;2023-07-22T02:02:51;15.86;89.78
66722;SHT31;53633;49.932;10.884;2023-07-22T02:05:18;15.79;89.51
66722;SHT31;53633;49.932;10.884;2023-07-22T02:07:44;15.87;89.53
66722;SHT31;53633;49.932;10.884;2023-07-22T02:10:11;15.90;89.27
66722;SHT31;53633;49.932;10.884;2023-07-22T02:12:39;16.04;88.92
66722;SHT31;53633;49.932;10.884;2023-07-22T02:15:07;15.90;89.04
66722;SHT31;53633;49.932;10.884;2023-07-22T02:17:34;15.89;89.35
66722;SHT31;53633;49.932;10.884;2023-07-22T02:20:01;15.87;89.28
66722;SHT31;53633;49.932;10.884;2023-07-22T02:22:27;15.89;89.27
66722;SHT31;53633;49.932;10.884;2023-07-22T02:24:54;15.97;88.95
66722;SHT31;53633;49.932;10.884;2023-07-22T02:27:21;15.87;89.11
66722;SHT31;53633;49.932;10.884;2023-07-22T02:29:49;15.82;89.28
66722;SHT31;53633;49.932;10.884;2023-07-22T02:32:15;15.81;89.50
66722;SHT31;53633;49.932;10.884;2023-07-22T02:34:42;15.94;89.15
66722;SHT31;53633;49.932;10.884;2023-07-22T02:37:09;15.87;89.08
66722;SHT31;53633;49.932;10.884;2023-07-22T02:39:36;16.03;88.98
66722;SHT31;53633;49.932;10.884;2023-07-22T02:42:03;16.14;88.79
66722;SHT31;53633;49.932;10.884;2023-07-22T02:44:29;16.27;88.47
66722;SHT31;53633;49.932;10.884;2023-07-22T02:46:57;16.17;88.96
66722;SHT31;53633;49.932;10.884;2023-07-22T02:49:24;16.07;88.96
66722;SHT31;53633;49.932;10.884;2023-07-22T02:51:50;16.00;89.35
66722;SHT31;53633;49.932;10.884;2023-07-22T02:54:17;15.90;89.62
66722;SHT31;53633;49.932;10.884;2023-07-22T02:56:44;15.76;89.99
66722;SHT31;53633;49.932;10.884;2023-07-22T02:59:10;15.67;90.31
66722;SHT31;53633;49.932;10.884;2023-07-22T03:01:37;15.56;90.43
66722;SHT31;53633;49.932;10.884;2023-07-22T03:04:05;15.46;90.65
66722;SHT31;53633;49.932;10.884;2023-07-22T03:06:32;15.38;90.81
66722;SHT31;53633;49.932;10.884;2023-07-22T03:08:59;15.28;90.96
66722;SHT31;53633;49.932;10.884;2023-07-22T03:11:25;15.23;91.12
66722;SHT31;53633;49.932;10.884;2023-07-22T03:13:52;15.16;91.39
66722;SHT31;53633;49.932;10.884;2023-07-22T03:16:19;15.11;91.57
66722;SHT31;53633;49.932;10.884;2023-07-22T03:18:45;15.11;91.49
66722;SHT31;53633;49.932;10.884;2023-07-22T03:21:14;15.30;91.28
66722;SHT31;53633;49.932;10.884;2023-07-22T03:23:40;15.34;91.19
66722;SHT31;53633;49.932;10.884;2023-07-22T03:26:07;15.31;90.95
66722;SHT31;53633;49.932;10.884;2023-07-22T03:28:34;15.58;90.29
66722;SHT31;53633;49.932;10.884;2023-07-22T03:31:00;15.65;89.81
66722;SHT31;53633;49.932;10.884;2023-07-22T03:33:27;15.69;89.57
66722;SHT31;53633;49.932;10.884;2023-07-22T03:35:54;15.62;89.55
66722;SHT31;53633;49.932;10.884;2023-07-22T03:38:22;15.58;89.48
66722;SHT31;53633;49.932;10.884;2023-07-22T03:40:49;15.65;89.24
66722;SHT31;53633;49.932;10.884;2023-07-22T03:43:15;15.62;88.91
66722;SHT31;53633;49.932;10.884;2023-07-22T03:45:42;15.63;89.27
66722;SHT31;53633;49.932;10.884;2023-07-22T03:48:09;15.67;89.20
66722;SHT31;53633;49.932;10.884;2023-07-22T03:50:35;15.51;89.80
66722;SHT31;53633;49.932;10.884;2023-07-22T03:53:02;15.55;89.93
66722;SHT31;53633;49.932;10.884;2023-07-22T03:55:30;15.44;90.16
66722;SHT31;53633;49.932;10.884;2023-07-22T03:57:57;15.34;90.46
66722;SHT31;53633;49.932;10.884;2023-07-22T04:00:24;15.25;90.60
66722;SHT31;53633;49.932;10.884;2023-07-22T04:02:50;15.21;90.66
66722;SHT31;53633;49.932;10.884;2023-07-22T04:05:17;15.25;90.39
66722;SHT31;53633;49.932;10.884;2023-07-22T04:07:44;15.20;90.24
66722;SHT31;53633;49.932;10.884;2023-07-22T04:10:11;15.14;90.26
66722;SHT31;53633;49.932;10.884;2023-07-22T04:12:39;15.04;90.35
66722;SHT31;53633;49.932;10.884;2023-07-22T04:15:09;15.06;90.54
66722;SHT31;53633;49.932;10.884;2023-07-22T04:17:36;15.07;90.52
66722;SHT31;53633;49.932;10.884;2023-07-22T04:20:03;15.07;90.36
66722;SHT31;53633;49.932;10.884;2023-07-22T04:22:30;15.21;90.74
66722;SHT31;53633;49.932;10.884;2023-07-22T04:24:56;15.52;90.34
66722;SHT31;53633;49.932;10.884;2023-07-22T04:27:23;15.89;89.21
66722;SHT31;53633;49.932;10.884;2023-07-22T04:29:51;16.21;88.30
66722;SHT31;53633;49.932;10.884;2023-07-22T04:32:18;16.55;87.00
66722;SHT31;53633;49.932;10.884;2023-07-22T04:34:45;16.89;85.94
66722;SHT31;53633;49.932;10.884;2023-07-22T04:37:12;17.10;85.76
66722;SHT31;53633;49.932;10.884;2023-07-22T04:39:38;17.42;85.01
66722;SHT31;53633;49.932;10.884;2023-07-22T04:42:06;17.77;81.63
66722;SHT31;53633;49.932;10.884;2023-07-22T04:44:32;18.23;80.25
66722;SHT31;53633;49.932;10.884;2023-07-22T04:47:00;18.87;79.12
66722;SHT31;53633;49.932;10.884;2023-07-22T04:49:27;19.31;77.60
66722;SHT31;53633;49.932;10.884;2023-07-22T04:51:54;20.13;72.07
66722;SHT31;53633;49.932;10.884;2023-07-22T04:54:21;21.04;69.97
66722;SHT31;53633;49.932;10.884;2023-07-22T04:56:47;21.18;70.73
66722;SHT31;53633;49.932;10.884;2023-07-22T04:59:14;21.60;66.37
66722;SHT31;53633;49.932;10.884;2023-07-22T05:01:41;22.44;65.61
66722;SHT31;53633;49.932;10.884;2023-07-22T05:04:09;23.08;62.48
66722;SHT31;53633;49.932;10.884;2023-07-22T05:06:36;22.96;62.54
66722;SHT31;53633;49.932;10.884;2023-07-22T05:09:02;23.47;61.06
66722;SHT31;53633;49.932;10.884;2023-07-22T05:11:29;23.96;61.08
66722;SHT31;53633;49.932;10.884;2023-07-22T05:13:56;24.28;61.09
66722;SHT31;53633;49.932;10.884;2023-07-22T05:16:22;24.90;57.49
66722;SHT31;53633;49.932;10.884;2023-07-22T05:18:49;24.85;58.23
66722;SHT31;53633;49.932;10.884;2023-07-22T05:21:17;25.05;57.27
66722;SHT31;53633;49.932;10.884;2023-07-22T05:23:44;25.12;55.69
66722;SHT31;53633;49.932;10.884;2023-07-22T05:26:11;25.51;53.79
66722;SHT31;53633;49.932;10.884;2023-07-22T05:28:37;25.88;51.10
66722;SHT31;53633;49.932;10.884;2023-07-22T05:31:04;26.41;51.42
66722;SHT31;53633;49.932;10.884;2023-07-22T05:33:31;26.46;50.45
66722;SHT31;53633;49.932;10.884;2023-07-22T05:35:58;26.18;51.27
66722;SHT31;53633;49.932;10.884;2023-07-22T05:38:26;26.12;50.47
66722;SHT31;53633;49.932;10.884;2023-07-22T05:40:53;25.61;51.50
66722;SHT31;53633;49.932;10.884;2023-07-22T05:43:20;26.15;50.24
66722;SHT31;53633;49.932;10.884;2023-07-22T05:45:46;24.60;52.31
66722;SHT31;53633;49.932;10.884;2023-07-22T05:48:13;23.90;55.98
66722;SHT31;53633;49.932;10.884;2023-07-22T05:50:40;23.45;56.48
66722;SHT31;53633;49.932;10.884;2023-07-22T05:53:06;23.18;56.66
66722;SHT31;53633;49.932;10.884;2023-07-22T05:55:34;23.28;56.59
66722;SHT31;53633;49.932;10.884;2023-07-22T05:58:02;22.96;56.46
66722;SHT31;53633;49.932;10.884;2023-07-22T06:00:29;22.14;58.19
66722;SHT31;53633;49.932;10.884;2023-07-22T06:02:56;21.66;60.22
66722;SHT31;53633;49.932;10.884;2023-07-22T06:05:23;21.21;61.20
66722;SHT31;53633;49.932;10.884;2023-07-22T06:07:49;20.76;60.98
66722;SHT31;53633;49.932;10.884;2023-07-22T06:10:16;20.40;61.67
66722;SHT31;53633;49.932;10.884;2023-07-22T06:12:44;20.13;63.55
66722;SHT31;53633;49.932;10.884;2023-07-22T06:15:11;19.91;64.84
66722;SHT31;53633;49.932;10.884;2023-07-22T06:17:38;19.73;65.71
66722;SHT31;53633;49.932;10.884;2023-07-22T06:20:06;19.57;67.55
66722;SHT31;53633;49.932;10.884;2023-07-22T06:22:32;19.37;68.13
66722;SHT31;53633;49.932;10.884;2023-07-22T06:24:59;19.36;66.77
66722;SHT31;53633;49.932;10.884;2023-07-22T06:27:26;19.41;66.98
66722;SHT31;53633;49.932;10.884;2023-07-22T06:29:54;19.50;65.82
66722;SHT31;53633;49.932;10.884;2023-07-22T06:32:21;19.37;66.13
66722;SHT31;53633;49.932;10.884;2023-07-22T06:34:48;19.36;66.80
66722;SHT31;53633;49.932;10.884;2023-07-22T06:37:14;19.45;65.75
66722;SHT31;53633;49.932;10.884;2023-07-22T06:39:41;19.34;66.85
66722;SHT31;53633;49.932;10.884;2023-07-22T06:42:08;19.36;66.69
66722;SHT31;53633;49.932;10.884;2023-07-22T06:44:35;19.27;66.89
66722;SHT31;53633;49.932;10.884;2023-07-22T06:47:03;19.26;67.42
66722;SHT31;53633;49.932;10.884;2023-07-22T06:49:30;18.88;68.61
66722;SHT31;53633;49.932;10.884;2023-07-22T06:51:56;18.69;70.05
66722;SHT31;53633;49.932;10.884;2023-07-22T06:54:23;18.98;69.64
66722;SHT31;53633;49.932;10.884;2023-07-22T06:56:50;19.31;67.53
66722;SHT31;53633;49.932;10.884;2023-07-22T06:59:16;19.74;66.49
66722;SHT31;53633;49.932;10.884;2023-07-22T07:01:43;20.98;63.82
66722;SHT31;53633;49.932;10.884;2023-07-22T07:04:11;21.54;60.86
66722;SHT31;53633;49.932;10.884;2023-07-22T07:06:38;21.47;60.27
66722;SHT31;53633;49.932;10.884;2023-07-22T07:09:04;21.93;60.05
66722;SHT31;53633;49.932;10.884;2023-07-22T07:11:31;22.35;58.76
66722;SHT31;53633;49.932;10.884;2023-07-22T07:13:58;22.08;58.47
66722;SHT31;53633;49.932;10.884;2023-07-22T07:16:29;21.35;59.84
66722;SHT31;53633;49.932;10.884;2023-07-22T07:18:57;20.67;62.08
66722;SHT31;53633;49.932;10.884;2023-07-22T07:21:25;20.66;61.90
66722;SHT31;53633;49.932;10.884;2023-07-22T07:23:53;20.61;62.82
66722;SHT31;53633;49.932;10.884;2023-07-22T07:26:20;20.63;62.11
66722;SHT31;53633;49.932;10.884;2023-07-22T07:28:47;20.71;62.64
66722;SHT31;53633;49.932;10.884;2023-07-22T07:31:14;20.33;64.63
66722;SHT31;53633;49.932;10.884;2023-07-22T07:33:41;20.42;65.21
66722;SHT31;53633;49.932;10.884;2023-07-22T07:36:08;20.34;64.31
66722;SHT31;53633;49.932;10.884;2023-07-22T07:38:36;20.28;64.36
66722;SHT31;53633;49.932;10.884;2023-07-22T07:41:04;20.43;64.42
66722;SHT31;53633;49.932;10.884;2023-07-22T07:43:32;20.92;63.04
66722;SHT31;53633;49.932;10.884;2023-07-22T07:46:15;21.14;61.54
66722;SHT31;53633;49.932;10.884;2023-07-22T07:48:44;21.98;60.45
66722;SHT31;53633;49.932;10.884;2023-07-22T07:51:12;23.18;55.98
66722;SHT31;53633;49.932;10.884;2023-07-22T07:53:41;24.21;55.11
66722;SHT31;53633;49.932;10.884;2023-07-22T07:56:08;24.45;51.95
66722;SHT31;53633;49.932;10.884;2023-07-22T07:58:35;25.00;51.47
66722;SHT31;53633;49.932;10.884;2023-07-22T08:01:02;24.92;51.65
66722;SHT31;53633;49.932;10.884;2023-07-22T08:03:29;24.25;52.12
66722;SHT31;53633;49.932;10.884;2023-07-22T08:05:56;23.45;54.18
66722;SHT31;53633;49.932;10.884;2023-07-22T08:08:22;23.22;54.54
66722;SHT31;53633;49.932;10.884;2023-07-22T08:10:59;23.07;55.72
66722;SHT31;53633;49.932;10.884;2023-07-22T08:13:26;22.82;57.26
66722;SHT31;53633;49.932;10.884;2023-07-22T08:15:52;22.60;59.70
66722;SHT31;53633;49.932;10.884;2023-07-22T08:18:19;22.77;60.34
66722;SHT31;53633;49.932;10.884;2023-07-22T08:20:46;23.00;59.34
66722;SHT31;53633;49.932;10.884;2023-07-22T08:23:13;23.24;57.63
66722;SHT31;53633;49.932;10.884;2023-07-22T08:25:40;23.92;57.15
66722;SHT31;53633;49.932;10.884;2023-07-22T08:28:08;23.20;56.88
66722;SHT31;53633;49.932;10.884;2023-07-22T08:30:35;22.75;59.02
66722;SHT31;53633;49.932;10.884;2023-07-22T08:33:02;22.69;59.15
66722;SHT31;53633;49.932;10.884;2023-07-22T08:35:28;23.38;57.80
66722;SHT31;53633;49.932;10.884;2023-07-22T08:37:59;24.27;55.89
66722;SHT31;53633;49.932;10.884;2023-07-22T08:40:25;24.51;54.70
66722;SHT31;53633;49.932;10.884;2023-07-22T08:42:52;24.93;54.75
66722;SHT31;53633;49.932;10.884;2023-07-22T08:45:21;25.03;50.44
66722;SHT31;53633;49.932;10.884;2023-07-22T08:47:54;26.09;49.96
66722;SHT31;53633;49.932;10.884;2023-07-22T08:50:29;26.73;49.34
66722;SHT31;53633;49.932;10.884;2023-07-22T08:52:56;27.02;48.05
66722;SHT31;53633;49.932;10.884;2023-07-22T08:55:24;26.56;48.86
66722;SHT31;53633;49.932;10.884;2023-07-22T08:57:51;26.84;47.59
66722;SHT31;53633;49.932;10.884;2023-07-22T09:00:20;26.65;46.78
66722;SHT31;53633;49.932;10.884;2023-07-22T09:02:48;25.88;49.50
66722;SHT31;53633;49.932;10.884;2023-07-22T09:05:15;26.44;48.43
66722;SHT31;53633;49.932;10.884;2023-07-22T09:07:42;26.60;48.84
66722;SHT31;53633;49.932;10.884;2023-07-22T09:10:10;26.74;46.25
66722;SHT31;53633;49.932;10.884;2023-07-22T09:12:37;27.18;45.67
66722;SHT31;53633;49.932;10.884;2023-07-22T09:15:04;27.57;44.68
66722;SHT31;53633;49.932;10.884;2023-07-22T09:17:32;26.73;46.04
66722;SHT31;53633;49.932;10.884;2023-07-22T09:19:59;26.37;47.52
66722;SHT31;53633;49.932;10.884;2023-07-22T09:22:26;25.74;49.92
66722;SHT31;53633;49.932;10.884;2023-07-22T09:25:12;25.98;50.28
66722;SHT31;53633;49.932;10.884;2023-07-22T09:27:39;25.61;50.64
66722;SHT31;53633;49.932;10.884;2023-07-22T09:30:20;26.01;47.12
66722;SHT31;53633;49.932;10.884;2023-07-22T09:32:48;25.96;47.65
66722;SHT31;53633;49.932;10.884;2023-07-22T09:35:16;25.58;48.41
66722;SHT31;53633;49.932;10.884;2023-07-22T09:37:43;25.36;47.61
66722;SHT31;53633;49.932;10.884;2023-07-22T09:40:17;25.30;48.46
66722;SHT31;53633;49.932;10.884;2023-07-22T09:42:46;24.90;49.66
66722;SHT31;53633;49.932;10.884;2023-07-22T09:45:13;24.83;49.20
66722;SHT31;53633;49.932;10.884;2023-07-22T09:47:40;25.19;49.30
66722;SHT31;53633;49.932;10.884;2023-07-22T09:50:12;25.03;49.93
66722;SHT31;53633;49.932;10.884;2023-07-22T09:52:44;25.86;48.14
66722;SHT31;53633;49.932;10.884;2023-07-22T09:55:12;26.22;46.45
66722;SHT31;53633;49.932;10.884;2023-07-22T09:57:43;27.08;45.50
66722;SHT31;53633;49.932;10.884;2023-07-22T10:00:11;28.08;43.98
66722;SHT31;53633;49.932;10.884;2023-07-22T10:02:40;28.04;44.06
66722;SHT31;53633;49.932;10.884;2023-07-22T10:05:08;27.59;45.19
66722;SHT31;53633;49.932;10.884;2023-07-22T10:07:42;26.71;45.13
66722;SHT31;53633;49.932;10.884;2023-07-22T10:10:10;26.15;46.93
66722;SHT31;53633;49.932;10.884;2023-07-22T10:12:39;26.30;47.19
66722;SHT31;53633;49.932;10.884;2023-07-22T10:15:07;25.89;47.22
66722;SHT31;53633;49.932;10.884;2023-07-22T10:17:34;25.70;47.97
66722;SHT31;53633;49.932;10.884;2023-07-22T10:20:02;25.60;48.10
66722;SHT31;53633;49.932;10.884;2023-07-22T10:22:29;25.48;48.85
66722;SHT31;53633;49.932;10.884;2023-07-22T10:24:58;24.81;49.36
66722;SHT31;53633;49.932;10.884;2023-07-22T10:27:25;24.31;51.08
66722;SHT31;53633;49.932;10.884;2023-07-22T10:29:54;24.27;50.59
66722;SHT31;53633;49.932;10.884;2023-07-22T10:32:21;24.09;49.75
66722;SHT31;53633;49.932;10.884;2023-07-22T10:34:48;23.87;51.11
66722;SHT31;53633;49.932;10.884;2023-07-22T10:37:17;24.33;50.59
66722;SHT31;53633;49.932;10.884;2023-07-22T10:39:44;23.75;50.66
66722;SHT31;53633;49.932;10.884;2023-07-22T10:42:24;23.52;51.57
66722;SHT31;53633;49.932;10.884;2023-07-22T10:44:51;24.02;51.17
66722;SHT31;53633;49.932;10.884;2023-07-22T10:47:31;24.60;50.52
66722;SHT31;53633;49.932;10.884;2023-07-22T10:50:06;24.82;49.61
66722;SHT31;53633;49.932;10.884;2023-07-22T10:52:41;25.06;49.07
66722;SHT31;53633;49.932;10.884;2023-07-22T10:55:16;24.93;48.09
66722;SHT31;53633;49.932;10.884;2023-07-22T10:57:52;24.92;48.55
66722;SHT31;53633;49.932;10.884;2023-07-22T11:00:20;25.06;48.89
66722;SHT31;53633;49.932;10.884;2023-07-22T11:02:47;25.12;48.75
66722;SHT31;53633;49.932;10.884;2023-07-22T11:05:47;25.08;47.54
66722;SHT31;53633;49.932;10.884;2023-07-22T11:08:14;25.00;47.88
66722;SHT31;53633;49.932;10.884;2023-07-22T11:10:52;24.90;48.16
66722;SHT31;53633;49.932;10.884;2023-07-22T11:13:27;25.08;48.25
66722;SHT31;53633;49.932;10.884;2023-07-22T11:15:57;25.51;47.43
66722;SHT31;53633;49.932;10.884;2023-07-22T11:18:35;25.50;47.97
66722;SHT31;53633;49.932;10.884;2023-07-22T11:21:07;25.88;47.37
66722;SHT31;53633;49.932;10.884;2023-07-22T11:23:34;25.68;46.15
66722;SHT31;53633;49.932;10.884;2023-07-22T11:26:01;24.99;46.64
66722;SHT31;53633;49.932;10.884;2023-07-22T11:28:30;24.44;48.45
66722;SHT31;53633;49.932;10.884;2023-07-22T11:30:57;24.76;48.57
66722;SHT31;53633;49.932;10.884;2023-07-22T11:33:24;24.64;48.01
66722;SHT31;53633;49.932;10.884;2023-07-22T11:35:51;24.99;45.59
66722;SHT31;53633;49.932;10.884;2023-07-22T11:38:18;25.50;45.22
66722;SHT31;53633;49.932;10.884;2023-07-22T11:40:45;25.63;44.87
66722;SHT31;53633;49.932;10.884;2023-07-22T11:43:12;25.88;45.27
66722;SHT31;53633;49.932;10.884;2023-07-22T11:45:41;26.23;44.42
66722;SHT31;53633;49.932;10.884;2023-07-22T11:48:09;26.25;43.16
66722;SHT31;53633;49.932;10.884;2023-07-22T11:50:36;26.01;43.40
66722;SHT31;53633;49.932;10.884;2023-07-22T11:53:03;26.06;44.01
66722;SHT31;53633;49.932;10.884;2023-07-22T11:55:30;26.03;43.84
66722;SHT31;53633;49.932;10.884;2023-07-22T11:58:03;26.40;43.17
66722;SHT31;53633;49.932;10.884;2023-07-22T12:00:32;26.60;43.41
66722;SHT31;53633;49.932;10.884;2023-07-22T12:03:06;26.41;43.42
66722;SHT31;53633;49.932;10.884;2023-07-22T12:05:35;26.56;43.47
66722;SHT31;53633;49.932;10.884;2023-07-22T12:08:03;25.93;44.41
66722;SHT31;53633;49.932;10.884;2023-07-22T12:10:30;25.57;45.92
66722;SHT31;53633;49.932;10.884;2023-07-22T12:13:00;25.64;45.95
66722;SHT31;53633;49.932;10.884;2023-07-22T12:15:27;25.74;45.71
66722;SHT31;53633;49.932;10.884;2023-07-22T12:17:55;25.60;45.03
66722;SHT31;53633;49.932;10.884;2023-07-22T12:20:25;25.54;45.99
66722;SHT31;53633;49.932;10.884;2023-07-22T12:22:52;25.84;45.53
66722;SHT31;53633;49.932;10.884;2023-07-22T12:25:19;26.02;44.94
66722;SHT31;53633;49.932;10.884;2023-07-22T12:27:46;25.92;45.43
66722;SHT31;53633;49.932;10.884;2023-07-22T12:30:13;25.77;46.58
66722;SHT31;53633;49.932;10.884;2023-07-22T12:32:39;26.16;44.58
66722;SHT31;53633;49.932;10.884;2023-07-22T12:35:07;25.95;44.08
66722;SHT31;53633;49.932;10.884;2023-07-22T12:37:35;26.02;45.22
66722;SHT31;53633;49.932;10.884;2023-07-22T12:40:03;25.91;45.17
66722;SHT31;53633;49.932;10.884;2023-07-22T12:42:30;25.68;45.81
66722;SHT31;53633;49.932;10.884;2023-07-22T12:44:56;25.95;44.87
66722;SHT31;53633;49.932;10.884;2023-07-22T12:47:23;25.88;44.15
66722;SHT31;53633;49.932;10.884;2023-07-22T12:49:50;26.03;43.98
66722;SHT31;53633;49.932;10.884;2023-07-22T12:52:16;26.02;44.33
66722;SHT31;53633;49.932;10.884;2023-07-22T12:54:44;26.02;44.74
66722;SHT31;53633;49.932;10.884;2023-07-22T12:57:11;26.12;44.99
66722;SHT31;53633;49.932;10.884;2023-07-22T12:59:38;26.02;45.36
66722;SHT31;53633;49.932;10.884;2023-07-22T13:02:05;25.80;45.16
66722;SHT31;53633;49.932;10.884;2023-07-22T13:04:32;25.68;45.76
66722;SHT31;53633;49.932;10.884;2023-07-22T13:06:58;25.43;46.58
66722;SHT31;53633;49.932;10.884;2023-07-22T13:09:25;25.41;47.38
66722;SHT31;53633;49.932;10.884;2023-07-22T13:11:53;25.38;47.72
66722;SHT31;53633;49.932;10.884;2023-07-22T13:14:20;25.46;46.73
66722;SHT31;53633;49.932;10.884;2023-07-22T13:16:46;25.37;46.45
66722;SHT31;53633;49.932;10.884;2023-07-22T13:19:13;25.12;46.78
66722;SHT31;53633;49.932;10.884;2023-07-22T13:21:40;24.76;47.65
66722;SHT31;53633;49.932;10.884;2023-07-22T13:24:06;24.71;48.16
66722;SHT31;53633;49.932;10.884;2023-07-22T13:26:34;24.54;47.95
66722;SHT31;53633;49.932;10.884;2023-07-22T13:29:05;24.61;47.97
66722;SHT31;53633;49.932;10.884;2023-07-22T13:31:32;24.64;47.36
66722;SHT31;53633;49.932;10.884;2023-07-22T13:33:58;24.82;47.92
66722;SHT31;53633;49.932;10.884;2023-07-22T13:36:25;24.95;47.34
66722;SHT31;53633;49.932;10.884;2023-07-22T13:38:51;25.10;47.25
66722;SHT31;53633;49.932;10.884;2023-07-22T13:41:19;25.24;47.11
66722;SHT31;53633;49.932;10.884;2023-07-22T13:43:45;25.17;47.92
66722;SHT31;53633;49.932;10.884;2023-07-22T13:46:13;25.24;46.27
66722;SHT31;53633;49.932;10.884;2023-07-22T13:48:40;25.43;46.28
66722;SHT31;53633;49.932;10.884;2023-07-22T13:51:06;25.51;46.22
66722;SHT31;53633;49.932;10.884;2023-07-22T13:53:33;25.57;45.18
66722;SHT31;53633;49.932;10.884;2023-07-22T13:56:00;25.54;44.96
66722;SHT31;53633;49.932;10.884;2023-07-22T13:58:27;25.55;46.21
66722;SHT31;53633;49.932;10.884;2023-07-22T14:00:54;25.43;45.38
66722;SHT31;53633;49.932;10.884;2023-07-22T14:03:22;25.50;44.74
66722;SHT31;53633;49.932;10.884;2023-07-22T14:05:48;25.68;44.39
66722;SHT31;53633;49.932;10.884;2023-07-22T14:08:15;25.70;43.62
66722;SHT31;53633;49.932;10.884;2023-07-22T14:10:42;25.91;43.69
66722;SHT31;53633;49.932;10.884;2023-07-22T14:13:08;26.06;43.26
66722;SHT31;53633;49.932;10.884;2023-07-22T14:15:35;26.22;43.83
66722;SHT31;53633;49.932;10.884;2023-07-22T14:18:02;25.95;44.58
66722;SHT31;53633;49.932;10.884;2023-07-22T14:20:30;25.91;43.23
66722;SHT31;53633;49.932;10.884;2023-07-22T14:22:57;25.64;44.82
66722;SHT31;53633;49.932;10.884;2023-07-22T14:25:24;25.70;43.95
66722;SHT31;53633;49.932;10.884;2023-07-22T14:27:50;25.99;44.50
66722;SHT31;53633;49.932;10.884;2023-07-22T14:30:17;25.93;43.36
66722;SHT31;53633;49.932;10.884;2023-07-22T14:32:44;26.12;42.35
66722;SHT31;53633;49.932;10.884;2023-07-22T14:35:11;26.25;42.22
66722;SHT31;53633;49.932;10.884;2023-07-22T14:37:39;26.15;42.12
66722;SHT31;53633;49.932;10.884;2023-07-22T14:40:06;26.09;41.98
66722;SHT31;53633;49.932;10.884;2023-07-22T14:42:33;26.01;41.92
66722;SHT31;53633;49.932;10.884;2023-07-22T14:45:00;25.78;42.84
66722;SHT31;53633;49.932;10.884;2023-07-22T14:47:26;26.13;41.63
66722;SHT31;53633;49.932;10.884;2023-07-22T14:49:54;26.35;41.51
66722;SHT31;53633;49.932;10.884;2023-07-22T14:52:20;26.39;42.44
66722;SHT31;53633;49.932;10.884;2023-07-22T14:54:49;26.51;41.40
66722;SHT31;53633;49.932;10.884;2023-07-22T14:57:16;26.40;42.36
66722;SHT31;53633;49.932;10.884;2023-07-22T14:59:43;26.40;41.37
66722;SHT31;53633;49.932;10.884;2023-07-22T15:02:10;26.30;41.81
66722;SHT31;53633;49.932;10.884;2023-07-22T15:04:36;26.16;41.95
66722;SHT31;53633;49.932;10.884;2023-07-22T15:07:03;26.13;42.29
66722;SHT31;53633;49.932;10.884;2023-07-22T15:09:31;26.03;42.57
66722;SHT31;53633;49.932;10.884;2023-07-22T15:11:59;26.18;42.03
66722;SHT31;53633;49.932;10.884;2023-07-22T15:14:26;26.22;42.70
66722;SHT31;53633;49.932;10.884;2023-07-22T15:16:52;26.25;42.23